sensor_id;sensor_type;location;lat;lon;timestamp;P1;durP1;ratioP1;P2;durP2;ratioP2
80910;SDS011;70359;51.420;7.032;2024-01-10T00:02:25;4.2;;;2.9;;
80910;SDS011;70359;51.420;7.032;2024-01-10T00:04:46;2.9;;;2.3;;
80910;SDS011;70359;51.420;7.032;2024-01-10T00:07:11;2.9;;;2.3;;
80910;SDS011;70359;51.420;7.032;2024-01-10T00:09:40;3.9;;;2.1;;
80910;SDS011;70359;51.420;7.032;2024-01-10T00:12:01;3.9;;;2.1;;
80910;SDS011;70359;51.420;7.032;2024-01-10T00:14:30;4.3;;;2.3;;
80910;SDS011;70359;51.420;7.032;2024-01-10T00:16:51;4.3;;;2.3;;
80910;SDS011;70359;51.420;7.032;2024-01-10T00:19:20;2.9;;;2.5;;
80910;SDS011;70359;51.420;7.032;2024-01-10T00:21:41;2.9;;;2.5;;
80910;SDS011;70359;51.420;7.032;2024-01-10T00:24:06;3.7;;;2.6;;
80910;SDS011;70359;51.420;7.032;2024-01-10T00:26:31;3.7;;;2.6;;
80910;SDS011;70359;51.420;7.032;2024-01-10T00:28:56;2.7;;;2.3;;
80910;SDS011;70359;51.420;7.032;2024-01-10T00:31:25;2.7;;;2.3;;
80910;SDS011;70359;51.420;7.032;2024-01-10T00:33:50;2.9;;;2.6;;
80910;SDS011;70359;51.420;7.032;2024-01-10T00:36:15;2.9;;;2.6;;
80910;SDS011;70359;51.420;7.032;2024-01-10T00:38:37;3;;;2.2;;
80910;SDS011;70359;51.420;7.032;2024-01-10T00:41:01;3;;;2.2;;
80910;SDS011;70359;51.420;7.032;2024-01-10T00:43:26;3;;;2.2;;
80910;SDS011;70359;51.420;7.032;2024-01-10T00:45:51;2.8;;;2.3;;
80910;SDS011;70359;51.420;7.032;2024-01-10T00:48:16;2.8;;;2.3;;
80910;SDS011;70359;51.420;7.032;2024-01-10T00:50:41;2.7;;;2.1;;
80910;SDS011;70359;51.420;7.032;2024-01-10T00:53:06;2.7;;;2.1;;
80910;SDS011;70359;51.420;7.032;2024-01-10T00:55:31;2;;;1.9;;
80910;SDS011;70359;51.420;7.032;2024-01-10T00:57:56;2;;;1.9;;
80910;SDS011;70359;51.420;7.032;2024-01-10T01:00:21;2.6;;;2.4;;
80910;SDS011;70359;51.420;7.032;2024-01-10T01:02:46;2.6;;;2.4;;
80910;SDS011;70359;51.420;7.032;2024-01-10T01:05:11;3.7;;;2.4;;
80910;SDS011;70359;51.420;7.032;2024-01-10T01:07:36;3.7;;;2.4;;
80910;SDS011;70359;51.420;7.032;2024-01-10T01:10:01;2.8;;;2.5;;
80910;SDS011;70359;51.420;7.032;2024-01-10T01:12:26;2.8;;;2.5;;
80910;SDS011;70359;51.420;7.032;2024-01-10T01:14:51;4;;;2.5;;
80910;SDS011;70359;51.420;7.032;2024-01-10T01:17:16;4;;;2.5;;
80910;SDS011;70359;51.420;7.032;2024-01-10T01:19:41;2.3;;;2.1;;
80910;SDS011;70359;51.420;7.032;2024-01-10T01:22:06;2.3;;;2.1;;
80910;SDS011;70359;51.420;7.032;2024-01-10T01:24:31;2.8;;;2.3;;
80910;SDS011;70359;51.420;7.032;2024-01-10T01:26:56;2.8;;;2.3;;
80910;SDS011;70359;51.420;7.032;2024-01-10T01:29:21;2.4;;;2.2;;
80910;SDS011;70359;51.420;7.032;2024-01-10T01:31:46;2.4;;;2.2;;
80910;SDS011;70359;51.420;7.032;2024-01-10T01:34:11;2.7;;;2.5;;
80910;SDS011;70359;51.420;7.032;2024-01-10T01:36:36;2.7;;;2.5;;
80910;SDS011;70359;51.420;7.032;2024-01-10T01:39:01;5.5;;;2.7;;
80910;SDS011;70359;51.420;7.032;2024-01-10T01:41:26;5.5;;;2.7;;
80910;SDS011;70359;51.420;7.032;2024-01-10T01:43:51;4;;;2.3;;
80910;SDS011;70359;51.420;7.032;2024-01-10T01:46:16;4;;;2.3;;
80910;SDS011;70359;51.420;7.032;2024-01-10T01:48:41;3.2;;;1.9;;
80910;SDS011;70359;51.420;7.032;2024-01-10T01:51:07;3.2;;;1.9;;
80910;SDS011;70359;51.420;7.032;2024-01-10T01:53:31;6.1;;;2.7;;
80910;SDS011;70359;51.420;7.032;2024-01-10T01:55:57;6.1;;;2.7;;
80910;SDS011;70359;51.420;7.032;2024-01-10T01:58:23;2.2;;;2;;
80910;SDS011;70359;51.420;7.032;2024-01-10T02:00:50;2.2;;;2;;
80910;SDS011;70359;51.420;7.032;2024-01-10T02:03:11;2.2;;;2;;
80910;SDS011;70359;51.420;7.032;2024-01-10T02:05:36;2.3;;;2.1;;
80910;SDS011;70359;51.420;7.032;2024-01-10T02:08:01;2.3;;;2.1;;
80910;SDS011;70359;51.420;7.032;2024-01-10T02:10:30;2.9;;;2.4;;
80910;SDS011;70359;51.420;7.032;2024-01-10T02:12:51;2.9;;;2.4;;
80910;SDS011;70359;51.420;7.032;2024-01-10T02:15:17;1.8;;;1.4;;
80910;SDS011;70359;51.420;7.032;2024-01-10T02:17:41;1.8;;;1.4;;
80910;SDS011;70359;51.420;7.032;2024-01-10T02:20:14;4.1;;;2;;
80910;SDS011;70359;51.420;7.032;2024-01-10T02:22:31;4.1;;;2;;
80910;SDS011;70359;51.420;7.032;2024-01-10T02:24:57;3;;;2.7;;
80910;SDS011;70359;51.420;7.032;2024-01-10T02:27:21;3;;;2.7;;
80910;SDS011;70359;51.420;7.032;2024-01-10T02:29:46;4;;;3;;
80910;SDS011;70359;51.420;7.032;2024-01-10T02:32:15;4;;;3;;
80910;SDS011;70359;51.420;7.032;2024-01-10T02:34:36;2;;;1.8;;
80910;SDS011;70359;51.420;7.032;2024-01-10T02:37:01;2;;;1.8;;
80910;SDS011;70359;51.420;7.032;2024-01-10T02:39:26;2.7;;;2.3;;
80910;SDS011;70359;51.420;7.032;2024-01-10T02:41:51;2.7;;;2.3;;
80910;SDS011;70359;51.420;7.032;2024-01-10T02:44:16;2.3;;;2.1;;
80910;SDS011;70359;51.420;7.032;2024-01-10T02:46:41;2.3;;;2.1;;
80910;SDS011;70359;51.420;7.032;2024-01-10T02:49:10;4;;;2.5;;
80910;SDS011;70359;51.420;7.032;2024-01-10T02:51:31;4;;;2.5;;
80910;SDS011;70359;51.420;7.032;2024-01-10T02:53:56;3.2;;;2.3;;
80910;SDS011;70359;51.420;7.032;2024-01-10T02:56:21;3.2;;;2.3;;
80910;SDS011;70359;51.420;7.032;2024-01-10T02:58:46;4.1;;;2.9;;
80910;SDS011;70359;51.420;7.032;2024-01-10T03:01:13;4.1;;;2.9;;
80910;SDS011;70359;51.420;7.032;2024-01-10T03:03:37;3.5;;;2.3;;
80910;SDS011;70359;51.420;7.032;2024-01-10T03:06:01;3.5;;;2.3;;
80910;SDS011;70359;51.420;7.032;2024-01-10T03:08:26;3.9;;;2.6;;
80910;SDS011;70359;51.420;7.032;2024-01-10T03:10:51;3.9;;;2.6;;
80910;SDS011;70359;51.420;7.032;2024-01-10T03:13:18;2.5;;;2.3;;
80910;SDS011;70359;51.420;7.032;2024-01-10T03:15:45;2.5;;;2.3;;
80910;SDS011;70359;51.420;7.032;2024-01-10T03:18:07;2.5;;;2.3;;
80910;SDS011;70359;51.420;7.032;2024-01-10T03:20:31;6;;;2.6;;
80910;SDS011;70359;51.420;7.032;2024-01-10T03:22:56;6;;;2.6;;
80910;SDS011;70359;51.420;7.032;2024-01-10T03:25:21;2.8;;;2.5;;
80910;SDS011;70359;51.420;7.032;2024-01-10T03:27:46;2.8;;;2.5;;
80910;SDS011;70359;51.420;7.032;2024-01-10T03:30:12;5.3;;;2.6;;
80910;SDS011;70359;51.420;7.032;2024-01-10T03:32:36;5.3;;;2.6;;
80910;SDS011;70359;51.420;7.032;2024-01-10T03:35:06;3.5;;;2.3;;
80910;SDS011;70359;51.420;7.032;2024-01-10T03:37:26;3.5;;;2.3;;
80910;SDS011;70359;51.420;7.032;2024-01-10T03:39:51;3.2;;;2.9;;
80910;SDS011;70359;51.420;7.032;2024-01-10T03:42:16;3.2;;;2.9;;
80910;SDS011;70359;51.420;7.032;2024-01-10T03:44:41;4.2;;;2.4;;
80910;SDS011;70359;51.420;7.032;2024-01-10T03:47:07;4.2;;;2.4;;
80910;SDS011;70359;51.420;7.032;2024-01-10T03:49:31;2.2;;;2;;
80910;SDS011;70359;51.420;7.032;2024-01-10T03:52:00;2.2;;;2;;
80910;SDS011;70359;51.420;7.032;2024-01-10T03:54:22;3.8;;;2.6;;
80910;SDS011;70359;51.420;7.032;2024-01-10T03:56:46;3.8;;;2.6;;
80910;SDS011;70359;51.420;7.032;2024-01-10T03:59:12;2.6;;;2.4;;
80910;SDS011;70359;51.420;7.032;2024-01-10T04:01:37;2.6;;;2.4;;
80910;SDS011;70359;51.420;7.032;2024-01-10T04:04:02;2.4;;;2.2;;
80910;SDS011;70359;51.420;7.032;2024-01-10T04:06:27;2.4;;;2.2;;
80910;SDS011;70359;51.420;7.032;2024-01-10T04:08:55;2.9;;;2.2;;
80910;SDS011;70359;51.420;7.032;2024-01-10T04:11:17;2.9;;;2.2;;
80910;SDS011;70359;51.420;7.032;2024-01-10T04:13:46;2.1;;;1.9;;
80910;SDS011;70359;51.420;7.032;2024-01-10T04:16:07;2.1;;;1.9;;
80910;SDS011;70359;51.420;7.032;2024-01-10T04:18:32;7;;;2.4;;
80910;SDS011;70359;51.420;7.032;2024-01-10T04:20:57;7;;;2.4;;
80910;SDS011;70359;51.420;7.032;2024-01-10T04:23:22;8;;;2.6;;
80910;SDS011;70359;51.420;7.032;2024-01-10T04:25:47;8;;;2.6;;
80910;SDS011;70359;51.420;7.032;2024-01-10T04:28:16;4;;;2.4;;
80910;SDS011;70359;51.420;7.032;2024-01-10T04:30:37;4;;;2.4;;
80910;SDS011;70359;51.420;7.032;2024-01-10T04:33:02;4;;;2.4;;
80910;SDS011;70359;51.420;7.032;2024-01-10T04:35:27;4.2;;;2.3;;
80910;SDS011;70359;51.420;7.032;2024-01-10T04:37:52;4.2;;;2.3;;
80910;SDS011;70359;51.420;7.032;2024-01-10T04:40:17;4.3;;;2.8;;
80910;SDS011;70359;51.420;7.032;2024-01-10T04:42:42;4.3;;;2.8;;
80910;SDS011;70359;51.420;7.032;2024-01-10T04:45:07;4.4;;;2.9;;
80910;SDS011;70359;51.420;7.032;2024-01-10T04:47:32;4.4;;;2.9;;
80910;SDS011;70359;51.420;7.032;2024-01-10T04:49:57;2.6;;;2.4;;
80910;SDS011;70359;51.420;7.032;2024-01-10T04:52:22;2.6;;;2.4;;
80910;SDS011;70359;51.420;7.032;2024-01-10T04:54:47;2.4;;;2.2;;
80910;SDS011;70359;51.420;7.032;2024-01-10T04:57:12;2.4;;;2.2;;
80910;SDS011;70359;51.420;7.032;2024-01-10T04:59:37;3.1;;;2.4;;
80910;SDS011;70359;51.420;7.032;2024-01-10T05:02:02;3.1;;;2.4;;
80910;SDS011;70359;51.420;7.032;2024-01-10T05:04:27;2.7;;;2.5;;
80910;SDS011;70359;51.420;7.032;2024-01-10T05:06:52;2.7;;;2.5;;
80910;SDS011;70359;51.420;7.032;2024-01-10T05:09:17;2.5;;;2.3;;
80910;SDS011;70359;51.420;7.032;2024-01-10T05:11:42;2.5;;;2.3;;
80910;SDS011;70359;51.420;7.032;2024-01-10T05:14:07;4.1;;;2.6;;
80910;SDS011;70359;51.420;7.032;2024-01-10T05:16:32;4.1;;;2.6;;
80910;SDS011;70359;51.420;7.032;2024-01-10T05:18:57;3.3;;;2.4;;
80910;SDS011;70359;51.420;7.032;2024-01-10T05:21:22;3.3;;;2.4;;
80910;SDS011;70359;51.420;7.032;2024-01-10T05:23:47;3;;;2.4;;
80910;SDS011;70359;51.420;7.032;2024-01-10T05:26:12;3;;;2.4;;
80910;SDS011;70359;51.420;7.032;2024-01-10T05:28:37;4.4;;;3.4;;
80910;SDS011;70359;51.420;7.032;2024-01-10T05:31:02;4.4;;;3.4;;
80910;SDS011;70359;51.420;7.032;2024-01-10T05:33:27;4.4;;;3.4;;
80910;SDS011;70359;51.420;7.032;2024-01-10T05:35:52;4.4;;;3.4;;
80910;SDS011;70359;51.420;7.032;2024-01-10T05:38:17;3.7;;;2.5;;
80910;SDS011;70359;51.420;7.032;2024-01-10T05:40:42;3.7;;;2.5;;
80910;SDS011;70359;51.420;7.032;2024-01-10T05:43:11;5.3;;;3.7;;
80910;SDS011;70359;51.420;7.032;2024-01-10T05:45:32;5.3;;;3.7;;
80910;SDS011;70359;51.420;7.032;2024-01-10T05:48:02;5.3;;;3.7;;
80910;SDS011;70359;51.420;7.032;2024-01-10T05:50:22;3.8;;;2.4;;
80910;SDS011;70359;51.420;7.032;2024-01-10T05:52:47;3.8;;;2.4;;
80910;SDS011;70359;51.420;7.032;2024-01-10T05:55:12;3.3;;;2.7;;
80910;SDS011;70359;51.420;7.032;2024-01-10T05:57:37;3.3;;;2.7;;
80910;SDS011;70359;51.420;7.032;2024-01-10T06:00:02;4.9;;;2.9;;
80910;SDS011;70359;51.420;7.032;2024-01-10T06:02:27;4.9;;;2.9;;
80910;SDS011;70359;51.420;7.032;2024-01-10T06:04:52;4.2;;;2.9;;
80910;SDS011;70359;51.420;7.032;2024-01-10T06:07:17;4.2;;;2.9;;
80910;SDS011;70359;51.420;7.032;2024-01-10T06:09:42;2.1;;;2;;
80910;SDS011;70359;51.420;7.032;2024-01-10T06:12:07;2.1;;;2;;
80910;SDS011;70359;51.420;7.032;2024-01-10T06:14:32;2.1;;;1.9;;
80910;SDS011;70359;51.420;7.032;2024-01-10T06:17:01;2.1;;;1.9;;
80910;SDS011;70359;51.420;7.032;2024-01-10T06:19:22;3.7;;;3.3;;
80910;SDS011;70359;51.420;7.032;2024-01-10T06:21:47;3.7;;;3.3;;
80910;SDS011;70359;51.420;7.032;2024-01-10T06:24:16;6.7;;;2.9;;
80910;SDS011;70359;51.420;7.032;2024-01-10T06:26:37;6.7;;;2.9;;
80910;SDS011;70359;51.420;7.032;2024-01-10T06:29:06;4.8;;;2.6;;
80910;SDS011;70359;51.420;7.032;2024-01-10T06:31:31;4.8;;;2.6;;
80910;SDS011;70359;51.420;7.032;2024-01-10T06:33:52;3.1;;;2.3;;
80910;SDS011;70359;51.420;7.032;2024-01-10T06:36:17;3.1;;;2.3;;
80910;SDS011;70359;51.420;7.032;2024-01-10T06:38:42;3;;;2.6;;
80910;SDS011;70359;51.420;7.032;2024-01-10T06:41:11;3;;;2.6;;
80910;SDS011;70359;51.420;7.032;2024-01-10T06:43:32;2.9;;;2.7;;
80910;SDS011;70359;51.420;7.032;2024-01-10T06:45:57;2.9;;;2.7;;
80910;SDS011;70359;51.420;7.032;2024-01-10T06:48:22;4.8;;;2.7;;
80910;SDS011;70359;51.420;7.032;2024-01-10T06:50:47;4.8;;;2.7;;
80910;SDS011;70359;51.420;7.032;2024-01-10T06:53:12;4.1;;;3;;
80910;SDS011;70359;51.420;7.032;2024-01-10T06:55:37;4.1;;;3;;
80910;SDS011;70359;51.420;7.032;2024-01-10T06:58:02;4.6;;;3.1;;
80910;SDS011;70359;51.420;7.032;2024-01-10T07:00:27;4.6;;;3.1;;
80910;SDS011;70359;51.420;7.032;2024-01-10T07:02:52;4.6;;;3.1;;
80910;SDS011;70359;51.420;7.032;2024-01-10T07:05:21;2.6;;;2.4;;
80910;SDS011;70359;51.420;7.032;2024-01-10T07:07:46;2.6;;;2.4;;
80910;SDS011;70359;51.420;7.032;2024-01-10T07:10:07;4.4;;;3.2;;
80910;SDS011;70359;51.420;7.032;2024-01-10T07:12:32;4.4;;;3.2;;
80910;SDS011;70359;51.420;7.032;2024-01-10T07:14:57;3.1;;;2.7;;
80910;SDS011;70359;51.420;7.032;2024-01-10T07:17:22;3.1;;;2.7;;
80910;SDS011;70359;51.420;7.032;2024-01-10T07:19:47;4.1;;;2.7;;
80910;SDS011;70359;51.420;7.032;2024-01-10T07:22:12;4.1;;;2.7;;
80910;SDS011;70359;51.420;7.032;2024-01-10T07:24:37;4.6;;;3.8;;
80910;SDS011;70359;51.420;7.032;2024-01-10T07:27:02;4.6;;;3.8;;
80910;SDS011;70359;51.420;7.032;2024-01-10T07:29:27;4.5;;;2.6;;
80910;SDS011;70359;51.420;7.032;2024-01-10T07:31:52;4.5;;;2.6;;
80910;SDS011;70359;51.420;7.032;2024-01-10T07:34:21;3;;;2.8;;
80910;SDS011;70359;51.420;7.032;2024-01-10T07:36:45;3;;;2.8;;
80910;SDS011;70359;51.420;7.032;2024-01-10T07:39:13;5.7;;;3.8;;
80910;SDS011;70359;51.420;7.032;2024-01-10T07:41:32;5.7;;;3.8;;
80910;SDS011;70359;51.420;7.032;2024-01-10T07:44:01;3.2;;;2.9;;
80910;SDS011;70359;51.420;7.032;2024-01-10T07:46:22;3.2;;;2.9;;
80910;SDS011;70359;51.420;7.032;2024-01-10T07:48:47;3.4;;;3;;
80910;SDS011;70359;51.420;7.032;2024-01-10T07:51:12;3.4;;;3;;
80910;SDS011;70359;51.420;7.032;2024-01-10T07:53:38;1.8;;;1.7;;
80910;SDS011;70359;51.420;7.032;2024-01-10T07:56:02;1.8;;;1.7;;
80910;SDS011;70359;51.420;7.032;2024-01-10T07:58:27;11.6;;;3.7;;
80910;SDS011;70359;51.420;7.032;2024-01-10T08:00:52;11.6;;;3.7;;
80910;SDS011;70359;51.420;7.032;2024-01-10T08:03:21;3.6;;;3.3;;
80910;SDS011;70359;51.420;7.032;2024-01-10T08:05:42;3.6;;;3.3;;
80910;SDS011;70359;51.420;7.032;2024-01-10T08:08:11;5;;;3.4;;
80910;SDS011;70359;51.420;7.032;2024-01-10T08:10:32;5;;;3.4;;
80910;SDS011;70359;51.420;7.032;2024-01-10T08:13:01;8.2;;;4;;
80910;SDS011;70359;51.420;7.032;2024-01-10T08:15:22;8.2;;;4;;
80910;SDS011;70359;51.420;7.032;2024-01-10T08:17:47;8.2;;;4;;
80910;SDS011;70359;51.420;7.032;2024-01-10T08:20:16;4.2;;;3.4;;
80910;SDS011;70359;51.420;7.032;2024-01-10T08:22:41;4.2;;;3.4;;
80910;SDS011;70359;51.420;7.032;2024-01-10T08:25:02;5;;;3.8;;
80910;SDS011;70359;51.420;7.032;2024-01-10T08:27:27;5;;;3.8;;
80910;SDS011;70359;51.420;7.032;2024-01-10T08:29:56;5.7;;;3.9;;
80910;SDS011;70359;51.420;7.032;2024-01-10T08:32:17;5.7;;;3.9;;
80910;SDS011;70359;51.420;7.032;2024-01-10T08:34:42;3.9;;;3.5;;
80910;SDS011;70359;51.420;7.032;2024-01-10T08:37:07;3.9;;;3.5;;
80910;SDS011;70359;51.420;7.032;2024-01-10T08:39:32;7.7;;;4.2;;
80910;SDS011;70359;51.420;7.032;2024-01-10T08:42:01;7.7;;;4.2;;
80910;SDS011;70359;51.420;7.032;2024-01-10T08:44:26;5.3;;;3.3;;
80910;SDS011;70359;51.420;7.032;2024-01-10T08:46:51;5.3;;;3.3;;
80910;SDS011;70359;51.420;7.032;2024-01-10T08:49:12;3.9;;;3.5;;
80910;SDS011;70359;51.420;7.032;2024-01-10T08:51:37;3.9;;;3.5;;
80910;SDS011;70359;51.420;7.032;2024-01-10T08:56:27;4.8;;;3.5;;
80910;SDS011;70359;51.420;7.032;2024-01-10T08:58:52;4.4;;;3.8;;
80910;SDS011;70359;51.420;7.032;2024-01-10T09:01:17;4.4;;;3.8;;
80910;SDS011;70359;51.420;7.032;2024-01-10T09:03:42;8.1;;;4.4;;
80910;SDS011;70359;51.420;7.032;2024-01-10T09:06:07;8.1;;;4.4;;
80910;SDS011;70359;51.420;7.032;2024-01-10T09:08:32;7.5;;;4.2;;
80910;SDS011;70359;51.420;7.032;2024-01-10T09:10:57;7.5;;;4.2;;
80910;SDS011;70359;51.420;7.032;2024-01-10T09:13:26;7.9;;;3.8;;
80910;SDS011;70359;51.420;7.032;2024-01-10T09:15:47;7.9;;;3.8;;
80910;SDS011;70359;51.420;7.032;2024-01-10T09:18:12;3.9;;;3.6;;
80910;SDS011;70359;51.420;7.032;2024-01-10T09:20:37;3.9;;;3.6;;
80910;SDS011;70359;51.420;7.032;2024-01-10T09:23:02;8.2;;;4.6;;
80910;SDS011;70359;51.420;7.032;2024-01-10T09:25:27;8.2;;;4.6;;
80910;SDS011;70359;51.420;7.032;2024-01-10T09:27:52;5.1;;;4.2;;
80910;SDS011;70359;51.420;7.032;2024-01-10T09:30:21;5.1;;;4.2;;
80910;SDS011;70359;51.420;7.032;2024-01-10T09:32:42;5.1;;;4.2;;
80910;SDS011;70359;51.420;7.032;2024-01-10T09:35:08;4.1;;;3.7;;
80910;SDS011;70359;51.420;7.032;2024-01-10T09:37:32;4.1;;;3.7;;
80910;SDS011;70359;51.420;7.032;2024-01-10T09:39:57;6;;;4.3;;
80910;SDS011;70359;51.420;7.032;2024-01-10T09:42:22;6;;;4.3;;
80910;SDS011;70359;51.420;7.032;2024-01-10T09:44:47;7.3;;;4.6;;
80910;SDS011;70359;51.420;7.032;2024-01-10T09:47:17;7.3;;;4.6;;
80910;SDS011;70359;51.420;7.032;2024-01-10T09:49:41;5.7;;;4.6;;
80910;SDS011;70359;51.420;7.032;2024-01-10T09:52:04;5.7;;;4.6;;
80910;SDS011;70359;51.420;7.032;2024-01-10T09:54:29;6.1;;;4.4;;
80910;SDS011;70359;51.420;7.032;2024-01-10T09:56:52;6.1;;;4.4;;
80910;SDS011;70359;51.420;7.032;2024-01-10T09:59:21;6.6;;;4.6;;
80910;SDS011;70359;51.420;7.032;2024-01-10T10:01:47;6.6;;;4.6;;
80910;SDS011;70359;51.420;7.032;2024-01-10T10:04:09;5.9;;;4.2;;
80910;SDS011;70359;51.420;7.032;2024-01-10T10:06:36;5.9;;;4.2;;
80910;SDS011;70359;51.420;7.032;2024-01-10T10:08:57;7.1;;;4.5;;
80910;SDS011;70359;51.420;7.032;2024-01-10T10:11:22;7.1;;;4.5;;
80910;SDS011;70359;51.420;7.032;2024-01-10T10:13:47;5.9;;;4.3;;
80910;SDS011;70359;51.420;7.032;2024-01-10T10:16:12;5.9;;;4.3;;
80910;SDS011;70359;51.420;7.032;2024-01-10T10:18:39;7;;;4.4;;
80910;SDS011;70359;51.420;7.032;2024-01-10T10:21:12;7;;;4.4;;
80910;SDS011;70359;51.420;7.032;2024-01-10T10:23:27;6.4;;;5.1;;
80910;SDS011;70359;51.420;7.032;2024-01-10T10:25:52;6.4;;;5.1;;
80910;SDS011;70359;51.420;7.032;2024-01-10T10:28:18;10.5;;;4.7;;
80910;SDS011;70359;51.420;7.032;2024-01-10T10:30:45;10.5;;;4.7;;
80910;SDS011;70359;51.420;7.032;2024-01-10T10:33:08;10.9;;;5.2;;
80910;SDS011;70359;51.420;7.032;2024-01-10T10:35:33;10.9;;;5.2;;
80910;SDS011;70359;51.420;7.032;2024-01-10T10:37:58;7.7;;;4.8;;
80910;SDS011;70359;51.420;7.032;2024-01-10T10:40:22;7.7;;;4.8;;
80910;SDS011;70359;51.420;7.032;2024-01-10T10:42:49;7.5;;;4.4;;
80910;SDS011;70359;51.420;7.032;2024-01-10T10:45:15;7.5;;;4.4;;
80910;SDS011;70359;51.420;7.032;2024-01-10T10:47:57;8.2;;;5.3;;
80910;SDS011;70359;51.420;7.032;2024-01-10T10:50:03;8.2;;;5.3;;
80910;SDS011;70359;51.420;7.032;2024-01-10T10:52:27;8.2;;;5.3;;
80910;SDS011;70359;51.420;7.032;2024-01-10T10:54:54;8.4;;;5.4;;
80910;SDS011;70359;51.420;7.032;2024-01-10T10:57:17;8.4;;;5.4;;
80910;SDS011;70359;51.420;7.032;2024-01-10T10:59:43;6.7;;;4.6;;
80910;SDS011;70359;51.420;7.032;2024-01-10T11:02:09;6.7;;;4.6;;
80910;SDS011;70359;51.420;7.032;2024-01-10T11:04:33;9.3;;;5.5;;
80910;SDS011;70359;51.420;7.032;2024-01-10T11:06:57;9.3;;;5.5;;
80910;SDS011;70359;51.420;7.032;2024-01-10T11:09:23;11;;;5.4;;
80910;SDS011;70359;51.420;7.032;2024-01-10T11:11:56;11;;;5.4;;
80910;SDS011;70359;51.420;7.032;2024-01-10T11:14:21;6;;;5.1;;
80910;SDS011;70359;51.420;7.032;2024-01-10T11:24:29;6.6;;;5.6;;
80910;SDS011;70359;51.420;7.032;2024-01-10T11:27:11;6.6;;;5.6;;
80910;SDS011;70359;51.420;7.032;2024-01-10T11:29:19;6.4;;;5;;
80910;SDS011;70359;51.420;7.032;2024-01-10T11:31:50;6.4;;;5;;
80910;SDS011;70359;51.420;7.032;2024-01-10T11:34:09;8.4;;;5.2;;
80910;SDS011;70359;51.420;7.032;2024-01-10T11:36:35;8.4;;;5.2;;
80910;SDS011;70359;51.420;7.032;2024-01-10T11:39:00;10.1;;;6;;
80910;SDS011;70359;51.420;7.032;2024-01-10T11:41:26;10.1;;;6;;
80910;SDS011;70359;51.420;7.032;2024-01-10T11:46:14;7.3;;;5.4;;
80910;SDS011;70359;51.420;7.032;2024-01-10T11:48:43;9;;;5.5;;
80910;SDS011;70359;51.420;7.032;2024-01-10T11:51:04;9;;;5.5;;
80910;SDS011;70359;51.420;7.032;2024-01-10T11:53:42;6.2;;;5.2;;
80910;SDS011;70359;51.420;7.032;2024-01-10T11:55:54;6.2;;;5.2;;
80910;SDS011;70359;51.420;7.032;2024-01-10T11:58:19;7.9;;;5.7;;
80910;SDS011;70359;51.420;7.032;2024-01-10T12:00:44;7.9;;;5.7;;
80910;SDS011;70359;51.420;7.032;2024-01-10T12:03:09;5.9;;;4.7;;
80910;SDS011;70359;51.420;7.032;2024-01-10T12:05:34;5.9;;;4.7;;
80910;SDS011;70359;51.420;7.032;2024-01-10T12:08:03;7.4;;;6;;
80910;SDS011;70359;51.420;7.032;2024-01-10T12:10:25;7.4;;;6;;
80910;SDS011;70359;51.420;7.032;2024-01-10T12:12:49;5.9;;;5.3;;
80910;SDS011;70359;51.420;7.032;2024-01-10T12:15:14;5.9;;;5.3;;
80910;SDS011;70359;51.420;7.032;2024-01-10T12:17:41;7.4;;;6.2;;
80910;SDS011;70359;51.420;7.032;2024-01-10T12:20:05;7.4;;;6.2;;
80910;SDS011;70359;51.420;7.032;2024-01-10T12:22:31;7.4;;;6.2;;
80910;SDS011;70359;51.420;7.032;2024-01-10T12:24:54;7.1;;;5.3;;
80910;SDS011;70359;51.420;7.032;2024-01-10T12:27:20;7.1;;;5.3;;
80910;SDS011;70359;51.420;7.032;2024-01-10T12:29:47;7.9;;;5;;
80910;SDS011;70359;51.420;7.032;2024-01-10T12:32:09;7.9;;;5;;
80910;SDS011;70359;51.420;7.032;2024-01-10T12:34:37;8.2;;;6;;
80910;SDS011;70359;51.420;7.032;2024-01-10T12:36:59;8.2;;;6;;
80910;SDS011;70359;51.420;7.032;2024-01-10T12:39:24;7.3;;;5.9;;
80910;SDS011;70359;51.420;7.032;2024-01-10T12:41:49;7.3;;;5.9;;
80910;SDS011;70359;51.420;7.032;2024-01-10T12:44:14;9.2;;;5.9;;
80910;SDS011;70359;51.420;7.032;2024-01-10T12:46:49;9.2;;;5.9;;
80910;SDS011;70359;51.420;7.032;2024-01-10T12:49:05;12.2;;;5.7;;
80910;SDS011;70359;51.420;7.032;2024-01-10T12:51:29;12.2;;;5.7;;
80910;SDS011;70359;51.420;7.032;2024-01-10T12:53:54;10;;;5.8;;
80910;SDS011;70359;51.420;7.032;2024-01-10T12:56:19;10;;;5.8;;
80910;SDS011;70359;51.420;7.032;2024-01-10T12:58:44;10.7;;;5.7;;
80910;SDS011;70359;51.420;7.032;2024-01-10T13:01:09;10.7;;;5.7;;
80910;SDS011;70359;51.420;7.032;2024-01-10T13:03:34;9.3;;;6.2;;
80910;SDS011;70359;51.420;7.032;2024-01-10T13:05:59;9.3;;;6.2;;
80910;SDS011;70359;51.420;7.032;2024-01-10T13:08:24;7.6;;;5.1;;
80910;SDS011;70359;51.420;7.032;2024-01-10T13:10:49;7.6;;;5.1;;
80910;SDS011;70359;51.420;7.032;2024-01-10T13:13:14;5.4;;;4.6;;
80910;SDS011;70359;51.420;7.032;2024-01-10T13:15:39;5.4;;;4.6;;
80910;SDS011;70359;51.420;7.032;2024-01-10T13:18:04;7.2;;;5.4;;
80910;SDS011;70359;51.420;7.032;2024-01-10T13:20:29;7.2;;;5.4;;
80910;SDS011;70359;51.420;7.032;2024-01-10T13:22:58;6.7;;;4.9;;
80910;SDS011;70359;51.420;7.032;2024-01-10T13:25:19;6.7;;;4.9;;
80910;SDS011;70359;51.420;7.032;2024-01-10T13:27:44;8.3;;;5.8;;
80910;SDS011;70359;51.420;7.032;2024-01-10T13:30:10;8.3;;;5.8;;
80910;SDS011;70359;51.420;7.032;2024-01-10T13:32:34;10.7;;;6.2;;
80910;SDS011;70359;51.420;7.032;2024-01-10T13:34:59;10.7;;;6.2;;
80910;SDS011;70359;51.420;7.032;2024-01-10T13:37:24;10.7;;;6.2;;
80910;SDS011;70359;51.420;7.032;2024-01-10T13:39:49;9.9;;;5.7;;
80910;SDS011;70359;51.420;7.032;2024-01-10T13:42:18;9.9;;;5.7;;
80910;SDS011;70359;51.420;7.032;2024-01-10T13:44:39;6.1;;;5.5;;
80910;SDS011;70359;51.420;7.032;2024-01-10T13:47:04;6.1;;;5.5;;
80910;SDS011;70359;51.420;7.032;2024-01-10T13:49:29;8.9;;;6.2;;
80910;SDS011;70359;51.420;7.032;2024-01-10T13:51:54;8.9;;;6.2;;
80910;SDS011;70359;51.420;7.032;2024-01-10T13:54:19;6.5;;;4.9;;
80910;SDS011;70359;51.420;7.032;2024-01-10T13:56:44;6.5;;;4.9;;
80910;SDS011;70359;51.420;7.032;2024-01-10T13:59:09;7.8;;;6.2;;
80910;SDS011;70359;51.420;7.032;2024-01-10T14:01:34;7.8;;;6.2;;
80910;SDS011;70359;51.420;7.032;2024-01-10T14:03:59;7.2;;;5.9;;
80910;SDS011;70359;51.420;7.032;2024-01-10T14:06:24;7.2;;;5.9;;
80910;SDS011;70359;51.420;7.032;2024-01-10T14:08:53;8.6;;;5.8;;
80910;SDS011;70359;51.420;7.032;2024-01-10T14:11:14;8.6;;;5.8;;
80910;SDS011;70359;51.420;7.032;2024-01-10T14:13:43;8.3;;;5.9;;
80910;SDS011;70359;51.420;7.032;2024-01-10T14:16:04;8.3;;;5.9;;
80910;SDS011;70359;51.420;7.032;2024-01-10T14:18:29;8.8;;;6.4;;
80910;SDS011;70359;51.420;7.032;2024-01-10T14:20:54;8.8;;;6.4;;
80910;SDS011;70359;51.420;7.032;2024-01-10T14:23:19;12.3;;;6;;
80910;SDS011;70359;51.420;7.032;2024-01-10T14:25:44;12.3;;;6;;
80910;SDS011;70359;51.420;7.032;2024-01-10T14:28:09;15.6;;;6.2;;
80910;SDS011;70359;51.420;7.032;2024-01-10T14:30:34;15.6;;;6.2;;
80910;SDS011;70359;51.420;7.032;2024-01-10T14:32:59;7.4;;;5.8;;
80910;SDS011;70359;51.420;7.032;2024-01-10T14:35:24;7.4;;;5.8;;
80910;SDS011;70359;51.420;7.032;2024-01-10T14:37:53;7.1;;;5.9;;
80910;SDS011;70359;51.420;7.032;2024-01-10T14:40:14;7.1;;;5.9;;
80910;SDS011;70359;51.420;7.032;2024-01-10T14:42:43;7.6;;;5.8;;
80910;SDS011;70359;51.420;7.032;2024-01-10T14:45:09;7.6;;;5.8;;
80910;SDS011;70359;51.420;7.032;2024-01-10T14:47:35;7.9;;;5.6;;
80910;SDS011;70359;51.420;7.032;2024-01-10T14:49:54;7.9;;;5.6;;
80910;SDS011;70359;51.420;7.032;2024-01-10T14:52:19;7.9;;;5.6;;
80910;SDS011;70359;51.420;7.032;2024-01-10T14:54:48;12.1;;;5.6;;
80910;SDS011;70359;51.420;7.032;2024-01-10T14:57:09;12.1;;;5.6;;
80910;SDS011;70359;51.420;7.032;2024-01-10T14:59:34;12;;;6.3;;
80910;SDS011;70359;51.420;7.032;2024-01-10T15:01:59;12;;;6.3;;
80910;SDS011;70359;51.420;7.032;2024-01-10T15:04:24;8.5;;;6.1;;
80910;SDS011;70359;51.420;7.032;2024-01-10T15:06:49;8.5;;;6.1;;
80910;SDS011;70359;51.420;7.032;2024-01-10T15:09:14;6;;;5.4;;
80910;SDS011;70359;51.420;7.032;2024-01-10T15:11:39;6;;;5.4;;
80910;SDS011;70359;51.420;7.032;2024-01-10T15:14:04;10.2;;;6.3;;
80910;SDS011;70359;51.420;7.032;2024-01-10T15:16:29;10.2;;;6.3;;
80910;SDS011;70359;51.420;7.032;2024-01-10T15:18:54;9.2;;;6.5;;